Skip to Main Content

Video Notice

If you see just a black screen when trying to view Live Traffic cameras, please click inside the window to get video to play. An update to certain browsers is not allowing the video to auto-play when the window opens. 

SEARCH:
Location Air RH Dwp Precip Type Wind Speed Wind Gust Direction Pavement Temperature Date/Time
Hatem Bridge US 40 E/B 70 96 69 Rain Calm 4 mph S 71 - 71 8/22/2018 12:13:00 AM
I-270 at I-370 70 100 70 None Calm Calm N 72 - 72 8/22/2018 12:10:00 AM
I-270 at MD-109 70 100 70 Rain Calm Calm SW 72 - 72 8/22/2018 12:10:00 AM
I-495 at American Legion Bridge 73 97 72 None Calm Calm W 75 - 75 8/22/2018 12:10:00 AM
I-68 at Savage Mt 65 100 65 None Calm 9 mph NW 65 - 65 8/22/2018 12:10:00 AM
I-68 at Sideling Hill 67 100 67 None Calm Calm S 71 - 72 8/22/2018 12:10:00 AM
I-68 at US 219 64 100 64 None 10 mph 25 mph SW 66 - 67 8/22/2018 12:10:00 AM
I-68 at WV Line 66 97 65 None 4 mph 11 mph SW 69 - 70 8/22/2018 12:10:00 AM
I-695 at I-83 69 97 68 Rain Calm 5 mph N 71 - 71 8/22/2018 12:10:00 AM
I-695 on FSK Bridge 71 98 70 None 5 mph 7 mph NE 72 - 72 8/22/2018 12:13:00 AM
I-70 at Fred-Wash Co. 67 100 67 None Calm Calm SE 68 - 69 8/22/2018 12:10:00 AM
I-70 at I-695 69 100 69 Rain Calm 5 mph SW 71 - 72 8/22/2018 12:10:00 AM
I-70 at I-81 68 100 68 None Calm 4 mph SW - 8/22/2018 12:10:00 AM
I-70 at MD-27 68 100 68 Rain Calm 5 mph SW 70 - 70 8/22/2018 12:10:00 AM
I-70 at MD-32 69 99 69 Rain Calm 11 mph SW 71 - 71 8/22/2018 12:10:00 AM
I-83 at MD-137 68 100 68 None Calm Calm E 70 - 70 8/22/2018 12:10:00 AM
I-95 at I-695 NE 69 97 69 Rain Calm 4 mph SW 71 - 72 8/22/2018 12:13:00 AM
I-95 at Patuxent River 71 100 71 None Calm 4 mph N 72 - 73 8/22/2018 12:10:00 AM
I-95 at Tydings Bridge 69 99 69 Rain Calm 8 mph W 71 - 72 8/22/2018 12:10:00 AM
I-95/495 at I-295 78 91 75 None 5 mph 10 mph W 75 - 75 8/22/2018 12:10:00 AM
I-97 at MD-100 70 98 70 Rain Calm 4 mph S 73 - 73 8/22/2018 12:10:00 AM
I-97 at MD-32 72 97 71 Rain Calm 4 mph NW 74 - 74 8/22/2018 12:10:00 AM
IS 70 W of I-270 - - - No Data Available - - No Data Available 73 - 73 8/22/2018 12:10:00 AM
MD 136 @ MD 646 68 100 68 No Data Available Calm Calm SE 72 - 72 8/22/2018 12:10:00 AM
MD 20 at MD 21 71 95 70 Rain Calm 5 mph NE 74 - 74 8/22/2018 12:10:00 AM
MD 23 at Meadowtree Road 68 100 68 No Data Available Calm Calm SE 71 - 71 8/22/2018 12:10:00 AM
MD 231 at Patuxent River 76 97 75 None 7 mph 11 mph S 75 - 76 8/22/2018 12:10:00 AM
MD 24 at Jarrettsville Road 68 100 68 No Data Available Calm Calm W 72 - 72 8/22/2018 12:10:00 AM
MD 260 at Cox Rd 74 98 74 None Calm 8 mph SW 76 - 76 8/22/2018 12:10:00 AM
MD-135 at Salt Dome 63 100 63 None 5 mph 15 mph SW 66 - 66 8/22/2018 12:10:00 AM
MD-140 at MD-97 67 100 67 None 4 mph 9 mph SW 70 - 70 8/22/2018 12:10:00 AM
MD-200 EB at Bonifant Rd - - - No Data Available - - No Data Available -
MD-200 WB at Muncaster Mill Rd - - - No Data Available - - No Data Available -
MD-213 at Sassafras River 74 100 74 Rain Calm 4 mph W 77 - 77 8/22/2018 12:10:00 AM
MD-24 at Rock St Park 70 100 70 None Calm Calm SW 71 - 71 8/22/2018 12:10:00 AM
MD-30 at PA Line 67 100 67 None 6 mph 12 mph S 70 - 70 8/22/2018 12:10:00 AM
MD-33 at Knapps Narrows Drawbridge 77 92 75 None 7 mph 17 mph SW 78 - 78 8/22/2018 12:10:00 AM
MD-344 at MD-224 74 100 74 None Calm Calm N 79 - 79 8/22/2018 12:10:00 AM
MD-4 at Patuxent River 77 100 77 None 14 mph 20 mph SW 77 - 79 8/22/2018 12:13:00 AM
MD-404 at Choptank River 74 95 73 None Calm 4 mph S 75 - 77 8/22/2018 12:10:00 AM
MD-43 at MD-150 70 100 70 Rain Calm 5 mph NW 71 - 72 8/22/2018 12:10:00 AM
MD-51 at Oldtown Salt Dome 70 100 70 None Calm Calm N 74 - 74 8/22/2018 12:10:00 AM
MD-64 at MD-418 68 100 68 None Calm 4 mph SW 73 - 74 8/22/2018 12:10:00 AM
US 301 at MD 305 72 97 72 None Calm 4 mph SE 76 - 77 8/22/2018 12:10:00 AM
US-1 at Baltimore / Harford Co. Line 68 97 68 None Calm Calm N 71 - 72 8/22/2018 12:10:00 AM
US-1 at Conowingo Dam 70 100 70 Rain Calm Calm SE 72 - 72 8/22/2018 12:10:00 AM
US-13 at US-113 75 96 74 None 5 mph 10 mph S 77 - 77 8/22/2018 12:10:00 AM
US-13 at US-50 74 96 73 None 5 mph 9 mph S 76 - 76 8/22/2018 12:10:00 AM
US-15 at MD-140 68 100 68 None Calm 5 mph SE 70 - 71 8/22/2018 12:10:00 AM
US-301 at MD-5 75 100 75 None Calm 6 mph S 76 - 77 8/22/2018 12:10:00 AM
US-301 at Potomac 79 97 78 None 14 mph 19 mph SW 74 - 74 8/22/2018 12:13:00 AM
US-340 at MD-180 67 100 67 None Calm Calm SE 71 - 72 8/22/2018 12:10:00 AM
US-50 at Choptank 77 100 77 None Calm 9 mph SW 76 - 77 8/22/2018 12:10:00 AM
US-50 at I-95 74 100 74 None Calm 7 mph W 75 - 76 8/22/2018 12:10:00 AM
US-50 at MD-2 73 100 73 None 6 mph 11 mph N 75 - 75 8/22/2018 12:10:00 AM
US-50 at MD-331 78 95 76 None 8 mph 14 mph SW 76 - 77 8/22/2018 12:10:00 AM
US-50 at OC Drawbridge 76 100 76 None 6 mph 16 mph SW 78 - 78 8/22/2018 12:10:00 AM
US-50 at Table Rock Rd 63 100 63 None 4 mph 16 mph NW 67 - 67 8/22/2018 12:10:00 AM
US-50 Kent Narrow Bridge 77 100 77 None 6 mph 13 mph S 76 - 77 8/22/2018 12:10:00 AM
WPL Pier 31 73 97 72 None 15 mph 17 mph NW 76 - 76 8/22/2018 12:13:00 AM
Location Air RH Dwp Precip Type Wind Speed Wind Gust Direction Pavement Temperature Date/Time